San Leon, Texas
Current Conditions -  °F | °C
As of 3:50 PM on Wednesday 17 Dec 2014 (Local Time) from KEFD Reporting Station
Broken Clouds Broken Clouds  
Wind Chill: 17°   Ceiling: 6000
Heat Index: 17°   Visibility: 10mi
Dew Point: 12°   Wind: 12mph
Humidity: 72%   Direction: 90°E
Pressure: 30.11"   Gusts: NA
Location:  29.4598°N, 95.0288°W
Report Text: KEFD 172150Z 09010KT 10SM SCT030 BKN060 17/12 A3011
Loading
Personal Weather Stations






























Interactive Weather Map New forecast layout! Learn more

10-Day Weather Forecast

Advertisements
Track Severe Weather on mobile